createdAt,value
2019-04-18T00:01:20.704Z,23.77
2019-04-18T00:04:08.812Z,27.77
2019-04-18T00:06:38.828Z,23.37
2019-04-18T00:09:09.745Z,21.17
2019-04-18T00:11:38.926Z,20.80
2019-04-18T00:14:08.573Z,23.33
2019-04-18T00:16:37.801Z,22.43
2019-04-18T00:19:08.926Z,27.57
2019-04-18T00:21:38.291Z,23.40
2019-04-18T00:24:07.264Z,24.70
2019-04-18T00:26:36.150Z,22.47
2019-04-18T00:29:05.968Z,21.43
2019-04-18T00:31:38.356Z,22.40
2019-04-18T00:34:13.547Z,21.77
2019-04-18T00:36:36.661Z,26.00
2019-04-18T00:39:09.075Z,21.20
2019-04-18T00:41:38.875Z,22.03
2019-04-18T00:44:09.468Z,25.00
2019-04-18T00:46:38.367Z,20.70
2019-04-18T00:49:07.515Z,23.63
2019-04-18T00:51:40.701Z,23.23
2019-04-18T00:54:08.784Z,20.90
2019-04-18T00:56:38.404Z,25.37
2019-04-18T00:59:07.837Z,21.50
2019-04-18T01:01:36.902Z,22.77
2019-04-18T01:04:05.894Z,19.57
2019-04-18T01:06:34.805Z,24.00
2019-04-18T01:09:17.209Z,19.60
2019-04-18T01:11:46.349Z,22.03
2019-04-18T01:14:17.060Z,21.83
2019-04-18T01:16:46.150Z,24.00
2019-04-18T01:19:16.952Z,22.63
2019-04-18T01:21:46.034Z,21.73
2019-04-18T01:24:14.973Z,23.97
2019-04-18T01:26:46.134Z,21.17
2019-04-18T01:29:14.586Z,24.60
2019-04-18T01:31:43.560Z,25.27
2019-04-18T01:34:15.746Z,21.93
2019-04-18T01:36:43.231Z,23.90
2019-04-18T01:39:15.927Z,24.70
2019-04-18T01:41:49.593Z,26.43
2019-04-18T01:44:28.096Z,22.83
2019-04-18T01:46:57.117Z,25.77
2019-04-18T01:49:26.124Z,22.33
2019-04-18T01:51:55.096Z,24.60
2019-04-18T01:54:24.173Z,24.20
2019-04-18T01:56:56.017Z,24.17
2019-04-18T01:59:43.262Z,28.17
2019-04-18T02:02:12.464Z,26.90
2019-04-18T02:05:00.010Z,23.20
2019-04-18T02:07:14.868Z,22.97
2019-04-18T02:09:43.426Z,25.10
2019-04-18T02:12:14.450Z,25.00
2019-04-18T02:14:43.002Z,20.77
2019-04-18T02:17:15.827Z,23.97
2019-04-18T02:19:42.928Z,27.77
2019-04-18T02:22:15.109Z,20.93
2019-04-18T02:24:42.837Z,24.53
2019-04-18T02:27:11.878Z,26.10
2019-04-18T02:29:42.604Z,25.13
2019-04-18T02:32:11.677Z,26.93
2019-04-18T02:34:40.644Z,23.47
2019-04-18T02:37:11.844Z,23.30
2019-04-18T02:39:40.318Z,25.57
2019-04-18T02:42:09.402Z,24.97
2019-04-18T02:44:38.310Z,22.67
2019-04-18T02:47:07.434Z,28.30
2019-04-18T02:49:36.328Z,24.00
2019-04-18T02:52:05.609Z,24.27
2019-04-18T02:54:35.539Z,24.10
2019-04-18T02:57:04.634Z,24.33
2019-04-18T03:00:11.134Z,23.20
2019-04-18T03:03:05.885Z,24.83
2019-04-18T03:05:36.466Z,27.43
2019-04-18T03:08:03.969Z,30.13
2019-04-18T03:10:32.955Z,22.83
2019-04-18T03:13:03.727Z,25.80
2019-04-18T03:15:32.557Z,25.90
2019-04-18T03:18:02.822Z,22.90
2019-04-18T03:20:32.234Z,25.27
2019-04-18T03:23:05.645Z,23.97
2019-04-18T03:25:32.096Z,24.80
2019-04-18T03:28:05.259Z,22.33
2019-04-18T03:30:32.429Z,23.47
2019-04-18T03:33:03.170Z,22.17
2019-04-18T03:35:47.367Z,25.10
2019-04-18T03:38:03.235Z,23.80
2019-04-18T03:40:32.180Z,22.73
2019-04-18T03:43:02.606Z,28.57
2019-04-18T03:45:43.658Z,25.80
2019-04-18T03:48:12.705Z,22.60
2019-04-18T03:50:41.869Z,30.00
2019-04-18T03:53:10.921Z,24.83
2019-04-18T03:55:55.249Z,23.43
2019-04-18T03:58:20.988Z,23.30
2019-04-18T04:00:50.043Z,22.03
2019-04-18T04:03:19.069Z,22.20
2019-04-18T04:06:03.356Z,25.30
2019-04-18T04:08:18.625Z,21.80
2019-04-18T04:10:48.406Z,20.60
2019-04-18T04:13:17.567Z,21.30
2019-04-18T04:15:46.908Z,21.77
2019-04-18T04:18:47.677Z,23.07
2019-04-18T04:21:16.101Z,22.20
2019-04-18T04:23:45.045Z,21.67
2019-04-18T04:26:13.931Z,20.50
2019-04-18T04:28:42.983Z,20.83
2019-04-18T04:31:12.022Z,20.03
2019-04-18T04:33:41.025Z,19.70
2019-04-18T04:36:22.213Z,21.03
2019-04-18T04:38:40.712Z,21.60
2019-04-18T04:41:13.164Z,19.63
2019-04-18T04:43:40.371Z,18.80
2019-04-18T04:46:09.591Z,21.50
2019-04-18T04:48:42.333Z,21.50
2019-04-18T04:51:30.310Z,21.10
2019-04-18T04:54:23.062Z,19.87
2019-04-18T04:57:16.841Z,14.83
2019-04-18T04:59:51.879Z,16.83
2019-04-18T05:02:20.399Z,17.20
2019-04-18T05:04:51.042Z,16.60
2019-04-18T05:07:20.668Z,19.10
2019-04-18T05:09:49.902Z,19.40
2019-04-18T05:12:18.818Z,17.43
2019-04-18T05:14:47.938Z,17.27
2019-04-18T05:17:17.455Z,16.53
2019-04-18T05:19:46.546Z,15.40
2019-04-18T05:22:15.450Z,15.23
2019-04-18T05:24:44.360Z,16.77
2019-04-18T05:27:13.375Z,17.90
2019-04-18T05:29:46.233Z,17.00
2019-04-18T05:32:12.993Z,16.80
2019-04-18T05:34:41.834Z,24.40
2019-04-18T05:37:14.000Z,15.57
2019-04-18T05:39:41.287Z,19.40
2019-04-18T05:42:10.253Z,20.63
2019-04-18T05:44:39.071Z,17.47
2019-04-18T05:47:26.992Z,16.27
2019-04-18T05:50:18.995Z,16.87
2019-04-18T05:52:56.103Z,15.20
2019-04-18T05:55:24.422Z,16.07
2019-04-18T05:57:55.011Z,21.17
2019-04-18T06:00:42.777Z,14.90
2019-04-18T06:03:27.016Z,15.77
2019-04-18T06:06:16.711Z,20.03
2019-04-18T06:08:44.430Z,14.83
2019-04-18T06:11:24.206Z,18.77
2019-04-18T06:13:56.778Z,15.90
2019-04-18T06:16:35.303Z,18.53
2019-04-18T06:19:12.949Z,21.50
2019-04-18T06:21:43.947Z,18.13
2019-04-18T06:24:12.934Z,16.33
2019-04-18T06:26:47.317Z,17.43
2019-04-18T06:29:24.391Z,16.03
2019-04-18T06:32:01.965Z,15.73
2019-04-18T06:34:30.880Z,14.83
2019-04-18T06:36:59.787Z,14.50
2019-04-18T06:39:28.688Z,14.60
2019-04-18T06:42:04.856Z,17.00
2019-04-18T06:44:34.214Z,15.63
2019-04-18T06:47:03.518Z,17.57
2019-04-18T06:49:46.774Z,16.50
2019-04-18T06:52:12.443Z,19.37
2019-04-18T06:54:41.504Z,14.80
2019-04-18T06:57:30.692Z,19.53
2019-04-18T07:00:05.943Z,18.93
2019-04-18T07:02:34.898Z,15.00
2019-04-18T07:05:04.190Z,15.00
2019-04-18T07:07:38.521Z,18.07
2019-04-18T07:10:21.897Z,14.93
2019-04-18T07:12:54.367Z,16.80
2019-04-18T07:15:23.360Z,15.13
2019-04-18T07:17:53.094Z,18.73
2019-04-18T07:20:34.347Z,21.67
2019-04-18T07:23:13.235Z,18.23
2019-04-18T07:25:42.257Z,15.30
2019-04-18T07:28:11.306Z,16.90
2019-04-18T07:30:44.435Z,17.20
2019-04-18T07:33:10.939Z,14.13
2019-04-18T07:35:39.828Z,14.10
2019-04-18T07:38:08.844Z,14.10
2019-04-18T07:40:43.905Z,15.70
2019-04-18T07:43:08.627Z,13.83
2019-04-18T07:45:37.598Z,26.50
2019-04-18T07:48:06.639Z,12.47
2019-04-18T07:50:36.064Z,14.30
2019-04-18T07:53:05.142Z,12.77
2019-04-18T07:55:37.133Z,15.27
2019-04-18T07:58:06.719Z,14.80
2019-04-18T08:00:38.129Z,13.30
2019-04-18T08:03:11.527Z,15.40
2019-04-18T08:05:38.119Z,14.00
2019-04-18T08:08:08.408Z,13.50
2019-04-18T08:10:37.785Z,13.90
2019-04-18T08:13:07.119Z,12.97
2019-04-18T08:15:36.203Z,20.27
2019-04-18T08:18:05.665Z,14.67
2019-04-18T08:20:35.122Z,15.40
2019-04-18T08:23:18.168Z,14.50
2019-04-18T08:25:34.964Z,12.80
2019-04-18T08:28:04.192Z,12.23
2019-04-18T08:30:34.905Z,13.40
2019-04-18T08:33:03.981Z,17.10
2019-04-18T08:35:52.153Z,11.40
2019-04-18T08:38:43.345Z,13.60
2019-04-18T08:41:31.320Z,13.30
2019-04-18T08:44:24.775Z,15.10
2019-04-18T08:46:52.836Z,12.50
2019-04-18T08:49:26.579Z,14.43
2019-04-18T08:52:22.280Z,13.60
2019-04-18T08:55:10.348Z,15.97
2019-04-18T08:57:41.188Z,12.97
2019-04-18T09:00:11.044Z,12.10
2019-04-18T09:02:39.970Z,11.07
2019-04-18T09:05:21.878Z,11.53
2019-04-18T09:07:40.372Z,12.83
2019-04-18T09:10:11.425Z,10.40
2019-04-18T09:12:42.098Z,12.70
2019-04-18T09:15:13.134Z,11.20
2019-04-18T09:17:43.011Z,16.73
2019-04-18T09:20:14.744Z,11.30
2019-04-18T09:22:44.790Z,12.23
2019-04-18T09:25:15.349Z,14.07
2019-04-18T09:27:48.091Z,14.17
2019-04-18T09:30:21.077Z,10.20
2019-04-18T09:32:46.506Z,10.43
2019-04-18T09:35:16.288Z,9.27
2019-04-18T09:37:45.906Z,10.30
2019-04-18T09:40:16.518Z,13.93
2019-04-18T09:42:45.964Z,10.80
2019-04-18T09:45:27.696Z,9.97
2019-04-18T09:47:45.820Z,11.53
2019-04-18T09:50:16.574Z,8.03
2019-04-18T09:52:45.702Z,10.03
2019-04-18T09:55:14.810Z,11.77
2019-04-18T09:57:43.917Z,11.17
2019-04-18T10:00:19.903Z,10.70
2019-04-18T10:02:47.770Z,14.50
2019-04-18T10:05:24.266Z,9.40
2019-04-18T10:07:51.498Z,8.77
2019-04-18T10:10:18.461Z,10.00
2019-04-18T10:12:47.358Z,13.93
2019-04-18T10:15:21.838Z,12.03
2019-04-18T10:17:49.997Z,22.70
2019-04-18T10:20:20.501Z,10.20
2019-04-18T10:22:53.618Z,15.30
2019-04-18T10:25:40.701Z,11.47
2019-04-18T10:28:09.992Z,8.77
2019-04-18T10:30:43.096Z,11.50
2019-04-18T10:33:12.558Z,11.20
2019-04-18T10:35:41.394Z,11.30
2019-04-18T10:38:11.049Z,11.10
2019-04-18T10:40:40.193Z,10.47
2019-04-18T10:43:09.201Z,9.63
2019-04-18T10:45:39.377Z,10.90
2019-04-18T10:48:08.567Z,11.43
2019-04-18T10:50:37.375Z,9.27
2019-04-18T10:53:06.261Z,11.07
2019-04-18T10:55:35.468Z,10.33
2019-04-18T10:58:05.628Z,11.77
2019-04-18T11:00:42.855Z,11.93
2019-04-18T11:03:05.794Z,10.43
2019-04-18T11:05:34.753Z,10.47
2019-04-18T11:08:04.301Z,13.33
2019-04-18T11:10:33.526Z,11.87
2019-04-18T11:13:02.536Z,10.57
2019-04-18T11:15:31.479Z,9.80
2019-04-18T11:18:00.386Z,11.27
2019-04-18T11:20:29.361Z,13.03
2019-04-18T11:22:58.166Z,12.03
2019-04-18T11:25:27.030Z,14.20
2019-04-18T11:27:55.961Z,12.07
2019-04-18T11:30:29.002Z,15.13
2019-04-18T11:32:55.606Z,13.83
2019-04-18T11:35:24.583Z,16.73
2019-04-18T11:37:53.414Z,9.87
2019-04-18T11:40:22.470Z,13.33
2019-04-18T11:42:51.361Z,12.13
2019-04-18T11:45:20.832Z,10.43
2019-04-18T11:47:49.782Z,8.90
2019-04-18T11:50:19.586Z,13.40
2019-04-18T11:52:48.501Z,13.97
2019-04-18T11:55:17.824Z,9.03
2019-04-18T11:57:48.353Z,8.20
2019-04-18T12:00:43.651Z,8.67
2019-04-18T12:03:24.062Z,10.73
2019-04-18T12:05:53.095Z,9.03
2019-04-18T12:08:22.074Z,7.20
2019-04-18T12:10:50.971Z,6.60
2019-04-18T12:13:19.828Z,6.30
2019-04-18T12:15:48.726Z,6.67
2019-04-18T12:18:17.723Z,7.10
2019-04-18T12:20:46.578Z,5.90
2019-04-18T12:23:15.713Z,6.97
2019-04-18T12:25:44.987Z,7.93
2019-04-18T12:28:13.938Z,9.80
2019-04-18T12:30:42.918Z,6.20
2019-04-18T12:33:11.882Z,9.73
2019-04-18T12:35:40.859Z,6.60
2019-04-18T12:38:09.755Z,9.40
2019-04-18T12:40:38.817Z,7.33
2019-04-18T12:43:07.708Z,8.67
2019-04-18T12:45:36.511Z,7.70
2019-04-18T12:48:05.919Z,6.27
2019-04-18T12:50:34.791Z,6.00
2019-04-18T12:53:03.983Z,10.90
2019-04-18T12:55:33.474Z,10.50
2019-04-18T12:58:02.483Z,6.53
2019-04-18T13:00:31.489Z,7.20
2019-04-18T13:03:01.247Z,6.13
2019-04-18T13:05:30.355Z,5.73
2019-04-18T13:08:05.994Z,9.40
2019-04-18T13:10:44.578Z,5.43
2019-04-18T13:13:34.418Z,7.23
2019-04-18T13:16:07.250Z,6.33
2019-04-18T13:18:36.141Z,6.40
2019-04-18T13:21:05.795Z,6.20
2019-04-18T13:23:35.526Z,6.70
2019-04-18T13:26:05.373Z,6.00
2019-04-18T13:28:34.200Z,9.13
2019-04-18T13:31:03.125Z,5.67
2019-04-18T13:33:32.082Z,4.43
2019-04-18T13:36:01.058Z,4.73
2019-04-18T13:38:30.045Z,5.00
2019-04-18T13:40:58.945Z,3.90
2019-04-18T13:43:28.056Z,5.23
2019-04-18T13:45:56.876Z,9.13
2019-04-18T13:48:25.706Z,4.57
2019-04-18T13:50:54.751Z,5.13
2019-04-18T13:53:23.557Z,4.87
2019-04-18T13:55:52.539Z,10.03
2019-04-18T13:58:21.452Z,4.57
2019-04-18T14:00:50.402Z,8.23
2019-04-18T14:03:19.351Z,4.70
2019-04-18T14:05:48.234Z,8.37
2019-04-18T14:08:17.241Z,10.13
2019-04-18T14:10:46.045Z,5.07
2019-04-18T14:13:15.018Z,7.37
2019-04-18T14:15:44.703Z,26.77
2019-04-18T14:18:13.774Z,9.50
2019-04-18T14:20:42.800Z,7.17
2019-04-18T14:23:12.085Z,9.43
2019-04-18T14:25:42.722Z,7.07
2019-04-18T14:28:11.943Z,8.23
2019-04-18T14:30:40.751Z,7.30
2019-04-18T14:33:09.821Z,4.17
2019-04-18T14:35:38.732Z,5.83
2019-04-18T14:38:08.317Z,6.07
2019-04-18T14:40:38.391Z,5.70
2019-04-18T14:43:07.374Z,6.10
2019-04-18T14:45:36.312Z,4.30
2019-04-18T14:48:10.183Z,5.77
2019-04-18T14:50:35.882Z,4.93
2019-04-18T14:53:04.832Z,6.33
2019-04-18T14:55:33.843Z,5.43
2019-04-18T14:58:02.775Z,5.03
2019-04-18T15:00:42.783Z,8.00
2019-04-18T15:03:02.774Z,5.30
2019-04-18T15:05:32.314Z,6.50
2019-04-18T15:10:39.012Z,5.33
2019-04-18T15:13:08.659Z,5.07
2019-04-18T15:15:37.624Z,8.17
2019-04-18T15:18:06.739Z,6.20
2019-04-18T15:20:35.993Z,5.33
2019-04-18T15:23:05.011Z,6.90
2019-04-18T15:25:34.001Z,5.53
2019-04-18T15:28:03.006Z,9.10
2019-04-18T15:30:31.424Z,7.17
2019-04-18T15:33:09.968Z,5.27
2019-04-18T15:35:31.131Z,6.77
2019-04-18T15:38:00.149Z,5.50
2019-04-18T15:40:30.257Z,5.83
2019-04-18T15:43:02.078Z,4.70
2019-04-18T15:45:47.850Z,5.50
2019-04-18T15:48:17.303Z,5.63
2019-04-18T15:50:46.277Z,5.50
2019-04-18T15:53:15.373Z,5.30
2019-04-18T15:55:44.371Z,5.83
2019-04-18T15:58:13.410Z,6.90
2019-04-18T16:00:42.455Z,6.90
2019-04-18T16:03:22.798Z,9.00
2019-04-18T16:05:54.349Z,8.40
2019-04-18T16:08:23.395Z,8.80
2019-04-18T16:10:53.954Z,5.67
2019-04-18T16:13:23.320Z,6.57
2019-04-18T16:15:52.702Z,7.40
2019-04-18T16:18:21.706Z,7.93
2019-04-18T16:20:50.755Z,6.13
2019-04-18T16:23:19.743Z,8.50
2019-04-18T16:25:48.688Z,5.40
2019-04-18T16:28:17.702Z,7.07
2019-04-18T16:30:46.743Z,16.73
2019-04-18T16:33:16.208Z,6.70
2019-04-18T16:35:45.248Z,6.33
2019-04-18T16:38:14.334Z,7.90
2019-04-18T16:40:43.462Z,9.33
2019-04-18T16:43:12.618Z,7.10
2019-04-18T16:45:41.542Z,6.50
2019-04-18T16:48:10.523Z,7.30
2019-04-18T16:50:39.498Z,11.30
2019-04-18T16:53:09.876Z,9.90
2019-04-18T16:55:38.783Z,7.70
2019-04-18T16:58:07.726Z,5.50
2019-04-18T17:00:42.029Z,7.37
2019-04-18T17:03:11.661Z,7.97
2019-04-18T17:05:40.727Z,7.17
2019-04-18T17:08:09.859Z,8.43
2019-04-18T17:10:39.069Z,9.57
2019-04-18T17:13:07.963Z,6.40
2019-04-18T17:15:37.099Z,6.80
2019-04-18T17:18:06.409Z,7.10
2019-04-18T17:20:35.918Z,9.10
2019-04-18T17:23:18.811Z,6.90
2019-04-18T17:25:48.021Z,6.47
2019-04-18T17:28:21.226Z,5.17
2019-04-18T17:30:50.613Z,7.57
2019-04-18T17:33:19.717Z,6.17
2019-04-18T17:35:57.056Z,5.40
2019-04-18T17:38:45.785Z,10.07
2019-04-18T17:41:00.158Z,6.20
2019-04-18T17:43:21.103Z,11.50
2019-04-18T17:46:07.075Z,9.30
2019-04-18T17:48:37.491Z,8.10
2019-04-18T17:51:11.366Z,7.50
2019-04-18T17:53:47.891Z,5.73
2019-04-18T17:56:18.209Z,7.23
2019-04-18T17:58:40.581Z,7.07
2019-04-18T18:01:10.931Z,9.03
2019-04-18T18:03:44.493Z,6.33
2019-04-18T18:06:16.123Z,6.17
2019-04-18T18:08:42.564Z,7.00
2019-04-18T18:11:13.828Z,8.50
2019-04-18T18:13:43.260Z,6.13
2019-04-18T18:16:22.795Z,8.53
2019-04-18T18:18:49.579Z,8.70
2019-04-18T18:21:23.128Z,10.40
2019-04-18T18:23:53.850Z,7.30
2019-04-18T18:26:25.062Z,6.57
2019-04-18T18:28:52.983Z,7.10
2019-04-18T18:31:30.858Z,7.60
2019-04-18T18:34:07.181Z,6.40
2019-04-18T18:36:49.082Z,6.83
2019-04-18T18:39:24.670Z,7.07
2019-04-18T18:41:52.393Z,9.27
2019-04-18T18:44:21.530Z,7.80
2019-04-18T18:46:51.610Z,6.40
2019-04-18T18:49:24.516Z,12.20
2019-04-18T18:52:12.548Z,8.33
2019-04-18T18:54:44.438Z,7.50
2019-04-18T18:57:15.652Z,8.27
2019-04-18T18:59:50.677Z,9.10
2019-04-18T19:02:17.828Z,8.57
2019-04-18T19:05:04.134Z,6.17
2019-04-18T19:07:21.166Z,6.60
2019-04-18T19:09:59.104Z,7.60
2019-04-18T19:12:25.318Z,7.17
2019-04-18T19:14:56.099Z,7.00
2019-04-18T19:17:20.418Z,7.33
2019-04-18T19:19:48.436Z,7.07
2019-04-18T19:22:19.192Z,7.07
2019-04-18T19:24:54.920Z,7.43
2019-04-18T19:27:27.978Z,7.63
2019-04-18T19:30:00.111Z,10.23
2019-04-18T19:32:20.653Z,7.63
2019-04-18T19:34:54.140Z,10.07
2019-04-18T19:37:32.453Z,14.47
2019-04-18T19:40:24.584Z,13.47
2019-04-18T19:42:23.915Z,15.57
2019-04-18T19:44:58.834Z,15.40
2019-04-18T19:47:23.033Z,10.43
2019-04-18T19:49:52.610Z,17.63
2019-04-18T19:52:24.949Z,13.13
2019-04-18T19:54:53.573Z,12.50
2019-04-18T19:57:22.876Z,16.03
2019-04-18T19:59:51.875Z,19.37
2019-04-18T20:02:21.010Z,15.63
2019-04-18T20:04:53.637Z,15.53
2019-04-18T20:07:32.034Z,16.27
2019-04-18T20:10:04.302Z,15.20
2019-04-18T20:12:32.045Z,16.63
2019-04-18T20:14:52.511Z,15.30
2019-04-18T20:17:22.416Z,14.23
2019-04-18T20:19:51.428Z,17.27
2019-04-18T20:22:23.932Z,15.40
2019-04-18T20:24:51.754Z,14.67
2019-04-18T20:27:24.662Z,21.63
2019-04-18T20:29:52.758Z,18.53
2019-04-18T20:32:24.207Z,18.70
2019-04-18T20:34:54.871Z,17.50
2019-04-18T20:37:39.124Z,17.90
2019-04-18T20:40:17.817Z,14.13
2019-04-18T20:42:39.984Z,21.03
2019-04-18T20:45:30.575Z,20.90
2019-04-18T20:47:45.682Z,19.60
2019-04-18T20:50:04.908Z,19.03
2019-04-18T20:52:47.693Z,23.17
2019-04-18T20:55:20.042Z,17.50
2019-04-18T20:57:36.733Z,17.17
2019-04-18T21:00:01.589Z,17.80
2019-04-18T21:02:33.889Z,17.90
2019-04-18T21:05:01.424Z,19.80
2019-04-18T21:07:39.627Z,16.20
2019-04-18T21:10:09.392Z,18.27
2019-04-18T21:12:32.227Z,16.43
2019-04-18T21:15:01.138Z,16.63
2019-04-18T21:17:30.408Z,14.63
2019-04-18T21:19:59.634Z,16.20
2019-04-18T21:22:28.654Z,17.03
2019-04-18T21:24:57.737Z,19.60
2019-04-18T21:27:33.600Z,16.77
2019-04-18T21:29:58.102Z,17.70
2019-04-18T21:32:27.190Z,17.70
2019-04-18T21:35:01.478Z,18.80
2019-04-18T21:37:36.765Z,16.93
2019-04-18T21:40:01.989Z,15.37
2019-04-18T21:42:33.800Z,16.50
2019-04-18T21:45:00.143Z,16.53
2019-04-18T21:47:33.592Z,15.83
2019-04-18T21:50:04.501Z,16.50
2019-04-18T21:52:32.221Z,16.03
2019-04-18T21:55:02.755Z,16.43
2019-04-18T21:57:36.495Z,16.53
2019-04-18T22:00:15.233Z,15.00
2019-04-18T22:02:38.473Z,14.83
2019-04-18T22:05:09.054Z,18.23
2019-04-18T22:07:49.400Z,19.47
2019-04-18T22:10:07.897Z,19.13
2019-04-18T22:12:43.157Z,16.70
2019-04-18T22:15:09.235Z,16.40
2019-04-18T22:17:38.424Z,16.17
2019-04-18T22:20:08.089Z,15.07
2019-04-18T22:22:38.287Z,14.33
2019-04-18T22:25:08.414Z,15.93
2019-04-18T22:27:43.674Z,17.60
2019-04-18T22:30:12.960Z,15.33
2019-04-18T22:32:45.431Z,14.23
2019-04-18T22:35:14.471Z,16.43
2019-04-18T22:37:52.146Z,20.60
2019-04-18T22:40:19.814Z,15.30
2019-04-18T22:42:46.076Z,16.90
2019-04-18T22:45:15.612Z,13.83
2019-04-18T22:47:47.498Z,14.67
2019-04-18T22:50:15.743Z,12.20
2019-04-18T22:52:45.115Z,14.57
2019-04-18T22:55:19.409Z,14.20
2019-04-18T22:57:45.801Z,17.23
2019-04-18T23:00:22.555Z,15.00
2019-04-18T23:02:46.657Z,17.83
2019-04-18T23:05:16.772Z,16.53
2019-04-18T23:07:52.439Z,16.13
2019-04-18T23:10:21.582Z,14.67
2019-04-18T23:12:47.224Z,19.47
2019-04-18T23:15:19.334Z,13.80
2019-04-18T23:17:47.765Z,16.20
2019-04-18T23:20:22.728Z,13.20
2019-04-18T23:22:49.317Z,16.87
2019-04-18T23:25:22.184Z,15.77
2019-04-18T23:27:50.386Z,16.57
2019-04-18T23:30:26.110Z,16.70
2019-04-18T23:32:50.823Z,16.30
2019-04-18T23:35:19.943Z,14.97
2019-04-18T23:37:57.461Z,15.13
2019-04-18T23:40:26.432Z,14.43
2019-04-18T23:42:53.251Z,15.83
2019-04-18T23:45:22.337Z,13.97
2019-04-18T23:47:54.545Z,14.00
2019-04-18T23:50:23.935Z,18.63
2019-04-18T23:52:58.057Z,14.67
2019-04-18T23:55:24.288Z,15.00
2019-04-18T23:57:59.581Z,15.27
